sensor_id;sensor_type;location;lat;lon;timestamp;P1;durP1;ratioP1;P2;durP2;ratioP2
20982;SDS011;10650;51.528;6.748;2023-06-22T00:00:26;12.52;;;11.15;;
20982;SDS011;10650;51.528;6.748;2023-06-22T00:02:55;12.02;;;10.80;;
20982;SDS011;10650;51.528;6.748;2023-06-22T00:05:23;11.07;;;9.73;;
20982;SDS011;10650;51.528;6.748;2023-06-22T00:07:50;11.07;;;9.82;;
20982;SDS011;10650;51.528;6.748;2023-06-22T00:10:19;13.02;;;11.75;;
20982;SDS011;10650;51.528;6.748;2023-06-22T00:12:46;12.93;;;10.77;;
20982;SDS011;10650;51.528;6.748;2023-06-22T00:15:14;14.10;;;12.07;;
20982;SDS011;10650;51.528;6.748;2023-06-22T00:17:45;14.65;;;13.25;;
20982;SDS011;10650;51.528;6.748;2023-06-22T00:20:13;13.82;;;12.23;;
20982;SDS011;10650;51.528;6.748;2023-06-22T00:22:41;15.43;;;11.20;;
20982;SDS011;10650;51.528;6.748;2023-06-22T00:25:09;13.13;;;11.60;;
20982;SDS011;10650;51.528;6.748;2023-06-22T00:27:37;16.20;;;12.55;;
20982;SDS011;10650;51.528;6.748;2023-06-22T00:30:05;13.82;;;12.43;;
20982;SDS011;10650;51.528;6.748;2023-06-22T00:32:34;14.23;;;12.82;;
20982;SDS011;10650;51.528;6.748;2023-06-22T00:35:03;14.60;;;12.43;;
20982;SDS011;10650;51.528;6.748;2023-06-22T00:37:31;12.85;;;11.55;;
20982;SDS011;10650;51.528;6.748;2023-06-22T00:39:59;14.35;;;12.80;;
20982;SDS011;10650;51.528;6.748;2023-06-22T00:42:27;13.65;;;12.23;;
20982;SDS011;10650;51.528;6.748;2023-06-22T00:44:54;14.00;;;12.60;;
20982;SDS011;10650;51.528;6.748;2023-06-22T00:47:22;13.80;;;12.45;;
20982;SDS011;10650;51.528;6.748;2023-06-22T00:49:50;14.02;;;12.52;;
20982;SDS011;10650;51.528;6.748;2023-06-22T00:52:20;11.82;;;10.57;;
20982;SDS011;10650;51.528;6.748;2023-06-22T00:54:53;13.63;;;12.25;;
20982;SDS011;10650;51.528;6.748;2023-06-22T00:57:21;12.85;;;11.55;;
20982;SDS011;10650;51.528;6.748;2023-06-22T00:59:52;14.88;;;13.35;;
20982;SDS011;10650;51.528;6.748;2023-06-22T01:02:19;14.18;;;12.68;;
20982;SDS011;10650;51.528;6.748;2023-06-22T01:04:47;14.38;;;12.88;;
20982;SDS011;10650;51.528;6.748;2023-06-22T01:07:17;15.27;;;13.68;;
20982;SDS011;10650;51.528;6.748;2023-06-22T01:09:55;12.40;;;11.20;;
20982;SDS011;10650;51.528;6.748;2023-06-22T01:12:27;14.73;;;13.23;;
20982;SDS011;10650;51.528;6.748;2023-06-22T01:15:02;14.70;;;13.23;;
20982;SDS011;10650;51.528;6.748;2023-06-22T01:17:35;19.58;;;17.20;;
20982;SDS011;10650;51.528;6.748;2023-06-22T01:20:08;15.15;;;13.60;;
20982;SDS011;10650;51.528;6.748;2023-06-22T01:22:42;16.33;;;14.73;;
20982;SDS011;10650;51.528;6.748;2023-06-22T01:25:31;15.02;;;13.43;;
20982;SDS011;10650;51.528;6.748;2023-06-22T01:28:05;16.70;;;13.82;;
20982;SDS011;10650;51.528;6.748;2023-06-22T01:30:46;15.23;;;13.63;;
20982;SDS011;10650;51.528;6.748;2023-06-22T01:33:16;16.05;;;14.50;;
20982;SDS011;10650;51.528;6.748;2023-06-22T01:35:44;16.65;;;13.93;;
20982;SDS011;10650;51.528;6.748;2023-06-22T01:38:12;15.35;;;13.85;;
20982;SDS011;10650;51.528;6.748;2023-06-22T01:40:40;16.40;;;14.77;;
20982;SDS011;10650;51.528;6.748;2023-06-22T01:43:08;17.35;;;15.23;;
20982;SDS011;10650;51.528;6.748;2023-06-22T01:45:37;14.70;;;13.20;;
20982;SDS011;10650;51.528;6.748;2023-06-22T01:48:06;15.05;;;13.55;;
20982;SDS011;10650;51.528;6.748;2023-06-22T01:50:34;16.13;;;14.52;;
20982;SDS011;10650;51.528;6.748;2023-06-22T01:53:02;16.63;;;15.02;;
20982;SDS011;10650;51.528;6.748;2023-06-22T01:55:31;17.55;;;15.77;;
20982;SDS011;10650;51.528;6.748;2023-06-22T01:57:59;16.95;;;15.18;;
20982;SDS011;10650;51.528;6.748;2023-06-22T02:00:27;15.15;;;13.55;;
20982;SDS011;10650;51.528;6.748;2023-06-22T02:03:00;17.02;;;15.23;;
20982;SDS011;10650;51.528;6.748;2023-06-22T02:05:34;16.80;;;15.05;;
20982;SDS011;10650;51.528;6.748;2023-06-22T02:08:09;19.02;;;17.00;;
20982;SDS011;10650;51.528;6.748;2023-06-22T02:10:42;16.13;;;14.63;;
20982;SDS011;10650;51.528;6.748;2023-06-22T02:13:12;16.15;;;14.43;;
20982;SDS011;10650;51.528;6.748;2023-06-22T02:15:41;14.93;;;13.45;;
20982;SDS011;10650;51.528;6.748;2023-06-22T02:18:09;17.73;;;15.57;;
20982;SDS011;10650;51.528;6.748;2023-06-22T02:20:38;16.83;;;15.15;;
20982;SDS011;10650;51.528;6.748;2023-06-22T02:23:07;17.35;;;15.52;;
20982;SDS011;10650;51.528;6.748;2023-06-22T02:25:35;16.63;;;14.85;;
20982;SDS011;10650;51.528;6.748;2023-06-22T02:28:03;15.02;;;13.43;;
20982;SDS011;10650;51.528;6.748;2023-06-22T02:30:31;17.98;;;15.90;;
20982;SDS011;10650;51.528;6.748;2023-06-22T02:32:59;18.48;;;16.58;;
20982;SDS011;10650;51.528;6.748;2023-06-22T02:35:27;17.30;;;15.60;;
20982;SDS011;10650;51.528;6.748;2023-06-22T02:37:59;18.13;;;16.27;;
20982;SDS011;10650;51.528;6.748;2023-06-22T02:40:28;17.98;;;16.17;;
20982;SDS011;10650;51.528;6.748;2023-06-22T02:42:57;18.92;;;17.00;;
20982;SDS011;10650;51.528;6.748;2023-06-22T02:45:28;18.25;;;16.30;;
20982;SDS011;10650;51.528;6.748;2023-06-22T02:47:56;19.38;;;17.15;;
20982;SDS011;10650;51.528;6.748;2023-06-22T02:50:24;19.45;;;17.15;;
20982;SDS011;10650;51.528;6.748;2023-06-22T02:52:52;18.08;;;16.17;;
20982;SDS011;10650;51.528;6.748;2023-06-22T02:55:21;20.48;;;18.38;;
20982;SDS011;10650;51.528;6.748;2023-06-22T02:57:50;19.42;;;17.42;;
20982;SDS011;10650;51.528;6.748;2023-06-22T03:00:19;19.67;;;17.85;;
20982;SDS011;10650;51.528;6.748;2023-06-22T03:02:48;19.58;;;17.58;;
20982;SDS011;10650;51.528;6.748;2023-06-22T03:05:16;19.33;;;17.45;;
20982;SDS011;10650;51.528;6.748;2023-06-22T03:07:45;19.33;;;17.33;;
20982;SDS011;10650;51.528;6.748;2023-06-22T03:10:13;19.63;;;17.42;;
20982;SDS011;10650;51.528;6.748;2023-06-22T03:12:43;22.58;;;20.35;;
20982;SDS011;10650;51.528;6.748;2023-06-22T03:15:11;19.15;;;17.00;;
20982;SDS011;10650;51.528;6.748;2023-06-22T03:17:40;21.17;;;19.13;;
20982;SDS011;10650;51.528;6.748;2023-06-22T03:20:08;23.08;;;19.88;;
20982;SDS011;10650;51.528;6.748;2023-06-22T03:22:38;19.13;;;17.23;;
20982;SDS011;10650;51.528;6.748;2023-06-22T03:25:06;20.05;;;18.15;;
20982;SDS011;10650;51.528;6.748;2023-06-22T03:27:39;21.95;;;19.77;;
20982;SDS011;10650;51.528;6.748;2023-06-22T03:30:09;22.98;;;20.73;;
20982;SDS011;10650;51.528;6.748;2023-06-22T03:32:38;22.40;;;20.02;;
20982;SDS011;10650;51.528;6.748;2023-06-22T03:35:06;21.65;;;19.45;;
20982;SDS011;10650;51.528;6.748;2023-06-22T03:37:34;22.02;;;19.80;;
20982;SDS011;10650;51.528;6.748;2023-06-22T03:40:02;21.92;;;19.63;;
20982;SDS011;10650;51.528;6.748;2023-06-22T03:42:33;22.40;;;20.00;;
20982;SDS011;10650;51.528;6.748;2023-06-22T03:45:01;23.60;;;21.15;;
20982;SDS011;10650;51.528;6.748;2023-06-22T03:47:31;22.70;;;20.45;;
20982;SDS011;10650;51.528;6.748;2023-06-22T03:49:59;22.30;;;19.90;;
20982;SDS011;10650;51.528;6.748;2023-06-22T03:52:30;23.92;;;21.50;;
20982;SDS011;10650;51.528;6.748;2023-06-22T03:54:57;22.08;;;19.77;;
20982;SDS011;10650;51.528;6.748;2023-06-22T03:57:25;24.17;;;21.73;;
20982;SDS011;10650;51.528;6.748;2023-06-22T03:59:54;23.95;;;21.23;;
20982;SDS011;10650;51.528;6.748;2023-06-22T04:02:23;22.45;;;20.15;;
20982;SDS011;10650;51.528;6.748;2023-06-22T04:04:53;21.77;;;19.67;;
20982;SDS011;10650;51.528;6.748;2023-06-22T04:07:21;24.85;;;22.45;;
20982;SDS011;10650;51.528;6.748;2023-06-22T04:09:49;23.40;;;21.20;;
20982;SDS011;10650;51.528;6.748;2023-06-22T04:12:16;23.23;;;20.92;;
20982;SDS011;10650;51.528;6.748;2023-06-22T04:14:44;23.58;;;20.80;;
20982;SDS011;10650;51.528;6.748;2023-06-22T04:17:12;23.40;;;21.10;;
20982;SDS011;10650;51.528;6.748;2023-06-22T04:19:40;23.83;;;21.42;;
20982;SDS011;10650;51.528;6.748;2023-06-22T04:22:09;23.55;;;21.33;;
20982;SDS011;10650;51.528;6.748;2023-06-22T04:24:38;22.33;;;20.13;;
20982;SDS011;10650;51.528;6.748;2023-06-22T04:27:05;22.02;;;19.73;;
20982;SDS011;10650;51.528;6.748;2023-06-22T04:29:33;23.40;;;21.15;;
20982;SDS011;10650;51.528;6.748;2023-06-22T04:32:01;23.73;;;21.33;;
20982;SDS011;10650;51.528;6.748;2023-06-22T04:34:31;22.42;;;20.33;;
20982;SDS011;10650;51.528;6.748;2023-06-22T04:36:59;22.77;;;20.38;;
20982;SDS011;10650;51.528;6.748;2023-06-22T04:39:28;19.98;;;18.00;;
20982;SDS011;10650;51.528;6.748;2023-06-22T04:41:57;22.60;;;20.40;;
20982;SDS011;10650;51.528;6.748;2023-06-22T04:44:26;22.15;;;19.95;;
20982;SDS011;10650;51.528;6.748;2023-06-22T04:46:55;23.55;;;21.25;;
20982;SDS011;10650;51.528;6.748;2023-06-22T04:49:27;23.02;;;20.70;;
20982;SDS011;10650;51.528;6.748;2023-06-22T04:51:59;23.98;;;21.50;;
20982;SDS011;10650;51.528;6.748;2023-06-22T04:54:28;23.25;;;20.98;;
20982;SDS011;10650;51.528;6.748;2023-06-22T04:56:59;23.38;;;20.65;;
20982;SDS011;10650;51.528;6.748;2023-06-22T04:59:27;23.65;;;20.80;;
20982;SDS011;10650;51.528;6.748;2023-06-22T05:01:56;22.02;;;19.63;;
20982;SDS011;10650;51.528;6.748;2023-06-22T05:04:24;23.25;;;20.95;;
20982;SDS011;10650;51.528;6.748;2023-06-22T05:06:54;23.58;;;20.05;;
20982;SDS011;10650;51.528;6.748;2023-06-22T05:09:22;23.92;;;21.48;;
20982;SDS011;10650;51.528;6.748;2023-06-22T05:11:52;23.75;;;21.40;;
20982;SDS011;10650;51.528;6.748;2023-06-22T05:14:20;24.27;;;21.65;;
20982;SDS011;10650;51.528;6.748;2023-06-22T05:16:48;18.33;;;16.42;;
20982;SDS011;10650;51.528;6.748;2023-06-22T05:19:18;21.65;;;19.45;;
20982;SDS011;10650;51.528;6.748;2023-06-22T05:21:46;22.88;;;20.58;;
20982;SDS011;10650;51.528;6.748;2023-06-22T05:24:13;22.27;;;19.98;;
20982;SDS011;10650;51.528;6.748;2023-06-22T05:26:41;23.17;;;20.75;;
20982;SDS011;10650;51.528;6.748;2023-06-22T05:29:10;19.92;;;17.75;;
20982;SDS011;10650;51.528;6.748;2023-06-22T05:31:38;21.95;;;19.77;;
20982;SDS011;10650;51.528;6.748;2023-06-22T05:34:06;22.67;;;20.27;;
20982;SDS011;10650;51.528;6.748;2023-06-22T05:36:34;23.15;;;20.67;;
20982;SDS011;10650;51.528;6.748;2023-06-22T05:39:10;22.63;;;20.38;;
20982;SDS011;10650;51.528;6.748;2023-06-22T05:41:39;23.42;;;21.15;;
20982;SDS011;10650;51.528;6.748;2023-06-22T05:44:07;23.52;;;21.15;;
20982;SDS011;10650;51.528;6.748;2023-06-22T05:46:36;23.10;;;20.70;;
20982;SDS011;10650;51.528;6.748;2023-06-22T05:49:04;22.42;;;20.30;;
20982;SDS011;10650;51.528;6.748;2023-06-22T05:51:32;22.45;;;20.05;;
20982;SDS011;10650;51.528;6.748;2023-06-22T05:54:00;24.23;;;21.77;;
20982;SDS011;10650;51.528;6.748;2023-06-22T05:56:28;21.10;;;18.88;;
20982;SDS011;10650;51.528;6.748;2023-06-22T05:58:56;22.25;;;20.08;;
20982;SDS011;10650;51.528;6.748;2023-06-22T06:01:23;24.42;;;21.88;;
20982;SDS011;10650;51.528;6.748;2023-06-22T06:03:53;24.25;;;21.88;;
20982;SDS011;10650;51.528;6.748;2023-06-22T06:06:21;25.80;;;23.23;;
20982;SDS011;10650;51.528;6.748;2023-06-22T06:08:54;25.90;;;23.10;;
20982;SDS011;10650;51.528;6.748;2023-06-22T06:11:22;23.70;;;21.33;;
20982;SDS011;10650;51.528;6.748;2023-06-22T06:13:50;24.50;;;22.13;;
20982;SDS011;10650;51.528;6.748;2023-06-22T06:16:18;24.95;;;22.58;;
20982;SDS011;10650;51.528;6.748;2023-06-22T06:18:46;24.15;;;21.65;;
20982;SDS011;10650;51.528;6.748;2023-06-22T06:21:16;24.73;;;22.20;;
20982;SDS011;10650;51.528;6.748;2023-06-22T06:23:44;27.20;;;24.50;;
20982;SDS011;10650;51.528;6.748;2023-06-22T06:26:13;26.42;;;23.63;;
20982;SDS011;10650;51.528;6.748;2023-06-22T06:28:42;24.80;;;22.38;;
20982;SDS011;10650;51.528;6.748;2023-06-22T06:31:10;27.98;;;24.73;;
20982;SDS011;10650;51.528;6.748;2023-06-22T06:33:43;26.90;;;24.10;;
20982;SDS011;10650;51.528;6.748;2023-06-22T06:36:11;27.40;;;24.50;;
20982;SDS011;10650;51.528;6.748;2023-06-22T06:38:40;25.40;;;22.90;;
20982;SDS011;10650;51.528;6.748;2023-06-22T06:41:08;27.65;;;24.75;;
20982;SDS011;10650;51.528;6.748;2023-06-22T06:43:35;27.63;;;24.83;;
20982;SDS011;10650;51.528;6.748;2023-06-22T06:46:03;28.52;;;25.83;;
20982;SDS011;10650;51.528;6.748;2023-06-22T06:48:31;26.92;;;24.25;;
20982;SDS011;10650;51.528;6.748;2023-06-22T06:50:59;31.88;;;28.77;;
20982;SDS011;10650;51.528;6.748;2023-06-22T06:53:27;29.25;;;26.33;;
20982;SDS011;10650;51.528;6.748;2023-06-22T06:55:56;30.65;;;27.55;;
20982;SDS011;10650;51.528;6.748;2023-06-22T06:58:24;28.05;;;25.25;;
20982;SDS011;10650;51.528;6.748;2023-06-22T07:00:51;28.38;;;25.55;;
20982;SDS011;10650;51.528;6.748;2023-06-22T07:03:19;30.27;;;27.17;;
20982;SDS011;10650;51.528;6.748;2023-06-22T07:05:47;29.77;;;26.77;;
20982;SDS011;10650;51.528;6.748;2023-06-22T07:08:15;32.47;;;29.02;;
20982;SDS011;10650;51.528;6.748;2023-06-22T07:10:42;29.75;;;26.63;;
20982;SDS011;10650;51.528;6.748;2023-06-22T07:13:11;32.17;;;29.02;;
20982;SDS011;10650;51.528;6.748;2023-06-22T07:15:39;32.67;;;29.23;;
20982;SDS011;10650;51.528;6.748;2023-06-22T07:18:07;32.05;;;28.85;;
20982;SDS011;10650;51.528;6.748;2023-06-22T07:20:35;32.85;;;29.40;;
20982;SDS011;10650;51.528;6.748;2023-06-22T07:23:03;31.75;;;28.35;;
20982;SDS011;10650;51.528;6.748;2023-06-22T07:25:30;33.80;;;30.42;;
20982;SDS011;10650;51.528;6.748;2023-06-22T07:27:59;31.73;;;28.50;;
20982;SDS011;10650;51.528;6.748;2023-06-22T07:30:30;34.47;;;31.10;;
20982;SDS011;10650;51.528;6.748;2023-06-22T07:32:59;30.98;;;27.83;;
20982;SDS011;10650;51.528;6.748;2023-06-22T07:35:30;32.63;;;29.48;;
20982;SDS011;10650;51.528;6.748;2023-06-22T07:37:58;30.65;;;27.45;;
20982;SDS011;10650;51.528;6.748;2023-06-22T07:40:31;33.78;;;30.33;;
20982;SDS011;10650;51.528;6.748;2023-06-22T07:42:59;24.15;;;21.60;;
20982;SDS011;10650;51.528;6.748;2023-06-22T07:45:27;30.63;;;27.45;;
20982;SDS011;10650;51.528;6.748;2023-06-22T07:47:56;31.38;;;28.27;;
20982;SDS011;10650;51.528;6.748;2023-06-22T07:50:24;28.52;;;25.60;;
20982;SDS011;10650;51.528;6.748;2023-06-22T07:52:52;31.65;;;28.42;;
20982;SDS011;10650;51.528;6.748;2023-06-22T07:55:20;29.90;;;26.90;;
20982;SDS011;10650;51.528;6.748;2023-06-22T07:57:48;31.73;;;28.35;;
20982;SDS011;10650;51.528;6.748;2023-06-22T08:00:18;31.45;;;28.25;;
20982;SDS011;10650;51.528;6.748;2023-06-22T08:02:46;27.00;;;24.33;;
20982;SDS011;10650;51.528;6.748;2023-06-22T08:05:16;30.83;;;27.67;;
20982;SDS011;10650;51.528;6.748;2023-06-22T08:08:01;29.67;;;26.67;;
20982;SDS011;10650;51.528;6.748;2023-06-22T08:10:28;29.85;;;26.75;;
20982;SDS011;10650;51.528;6.748;2023-06-22T08:12:56;31.23;;;28.08;;
20982;SDS011;10650;51.528;6.748;2023-06-22T08:15:25;33.63;;;30.13;;
20982;SDS011;10650;51.528;6.748;2023-06-22T08:17:55;31.13;;;28.02;;
20982;SDS011;10650;51.528;6.748;2023-06-22T08:20:25;30.83;;;27.88;;
20982;SDS011;10650;51.528;6.748;2023-06-22T08:22:53;27.17;;;24.40;;
20982;SDS011;10650;51.528;6.748;2023-06-22T08:25:21;30.02;;;27.20;;
20982;SDS011;10650;51.528;6.748;2023-06-22T08:27:49;29.80;;;26.90;;
20982;SDS011;10650;51.528;6.748;2023-06-22T08:30:17;31.60;;;28.35;;
20982;SDS011;10650;51.528;6.748;2023-06-22T08:32:45;29.25;;;26.35;;
20982;SDS011;10650;51.528;6.748;2023-06-22T08:35:13;27.95;;;25.25;;
20982;SDS011;10650;51.528;6.748;2023-06-22T08:37:42;29.92;;;27.13;;
20982;SDS011;10650;51.528;6.748;2023-06-22T08:40:16;28.50;;;25.67;;
20982;SDS011;10650;51.528;6.748;2023-06-22T08:42:46;26.30;;;23.88;;
20982;SDS011;10650;51.528;6.748;2023-06-22T08:45:14;30.00;;;26.58;;
20982;SDS011;10650;51.528;6.748;2023-06-22T08:47:42;29.63;;;26.60;;
20982;SDS011;10650;51.528;6.748;2023-06-22T08:50:10;28.75;;;25.85;;
20982;SDS011;10650;51.528;6.748;2023-06-22T08:52:40;28.75;;;25.70;;
20982;SDS011;10650;51.528;6.748;2023-06-22T08:55:10;31.52;;;28.52;;
20982;SDS011;10650;51.528;6.748;2023-06-22T08:57:38;28.55;;;25.65;;
20982;SDS011;10650;51.528;6.748;2023-06-22T09:00:06;28.90;;;26.10;;
20982;SDS011;10650;51.528;6.748;2023-06-22T09:02:52;29.05;;;26.10;;
20982;SDS011;10650;51.528;6.748;2023-06-22T09:05:25;28.65;;;25.60;;
20982;SDS011;10650;51.528;6.748;2023-06-22T09:07:53;28.27;;;25.65;;
20982;SDS011;10650;51.528;6.748;2023-06-22T09:10:23;28.85;;;25.85;;
20982;SDS011;10650;51.528;6.748;2023-06-22T09:12:51;24.85;;;22.25;;
20982;SDS011;10650;51.528;6.748;2023-06-22T09:15:18;28.83;;;26.02;;
20982;SDS011;10650;51.528;6.748;2023-06-22T09:17:46;27.45;;;24.73;;
20982;SDS011;10650;51.528;6.748;2023-06-22T09:20:14;28.77;;;25.88;;
20982;SDS011;10650;51.528;6.748;2023-06-22T09:22:42;28.80;;;25.83;;
20982;SDS011;10650;51.528;6.748;2023-06-22T09:25:10;29.25;;;26.25;;
20982;SDS011;10650;51.528;6.748;2023-06-22T09:27:40;27.38;;;24.50;;
20982;SDS011;10650;51.528;6.748;2023-06-22T09:30:08;29.33;;;26.52;;
20982;SDS011;10650;51.528;6.748;2023-06-22T09:32:36;27.80;;;24.90;;
20982;SDS011;10650;51.528;6.748;2023-06-22T09:35:04;29.13;;;26.15;;
20982;SDS011;10650;51.528;6.748;2023-06-22T09:37:34;26.83;;;24.02;;
20982;SDS011;10650;51.528;6.748;2023-06-22T09:40:02;28.00;;;25.20;;
20982;SDS011;10650;51.528;6.748;2023-06-22T09:42:34;24.25;;;21.17;;
20982;SDS011;10650;51.528;6.748;2023-06-22T09:45:04;29.50;;;25.77;;
20982;SDS011;10650;51.528;6.748;2023-06-22T09:47:32;26.30;;;23.58;;
20982;SDS011;10650;51.528;6.748;2023-06-22T09:50:00;27.85;;;25.15;;
20982;SDS011;10650;51.528;6.748;2023-06-22T09:52:28;27.92;;;25.13;;
20982;SDS011;10650;51.528;6.748;2023-06-22T09:55:13;28.27;;;25.60;;
20982;SDS011;10650;51.528;6.748;2023-06-22T09:57:42;28.75;;;25.17;;
20982;SDS011;10650;51.528;6.748;2023-06-22T10:00:12;27.48;;;24.60;;
20982;SDS011;10650;51.528;6.748;2023-06-22T10:02:41;27.98;;;25.00;;
20982;SDS011;10650;51.528;6.748;2023-06-22T10:05:10;26.98;;;24.40;;
20982;SDS011;10650;51.528;6.748;2023-06-22T10:07:38;27.75;;;24.88;;
20982;SDS011;10650;51.528;6.748;2023-06-22T10:10:09;25.88;;;23.17;;
20982;SDS011;10650;51.528;6.748;2023-06-22T10:12:40;24.50;;;22.10;;
20982;SDS011;10650;51.528;6.748;2023-06-22T10:15:10;26.60;;;23.80;;
20982;SDS011;10650;51.528;6.748;2023-06-22T10:17:39;26.80;;;23.98;;
20982;SDS011;10650;51.528;6.748;2023-06-22T10:20:08;28.33;;;25.30;;
20982;SDS011;10650;51.528;6.748;2023-06-22T10:22:39;26.35;;;23.88;;
20982;SDS011;10650;51.528;6.748;2023-06-22T10:25:08;24.60;;;22.20;;
20982;SDS011;10650;51.528;6.748;2023-06-22T10:27:36;26.92;;;24.33;;
20982;SDS011;10650;51.528;6.748;2023-06-22T10:30:06;26.13;;;23.42;;
20982;SDS011;10650;51.528;6.748;2023-06-22T10:32:37;24.63;;;21.98;;
20982;SDS011;10650;51.528;6.748;2023-06-22T10:35:06;23.67;;;21.48;;
20982;SDS011;10650;51.528;6.748;2023-06-22T10:37:35;26.20;;;23.52;;
20982;SDS011;10650;51.528;6.748;2023-06-22T10:40:03;25.95;;;23.38;;
20982;SDS011;10650;51.528;6.748;2023-06-22T10:42:31;25.33;;;22.90;;
20982;SDS011;10650;51.528;6.748;2023-06-22T10:44:59;22.73;;;20.33;;
20982;SDS011;10650;51.528;6.748;2023-06-22T10:47:27;24.42;;;22.15;;
20982;SDS011;10650;51.528;6.748;2023-06-22T10:49:56;23.95;;;21.65;;
20982;SDS011;10650;51.528;6.748;2023-06-22T10:52:24;24.83;;;22.42;;
20982;SDS011;10650;51.528;6.748;2023-06-22T10:54:51;22.25;;;20.15;;
20982;SDS011;10650;51.528;6.748;2023-06-22T10:57:21;20.60;;;18.80;;
20982;SDS011;10650;51.528;6.748;2023-06-22T10:59:49;24.38;;;22.08;;
20982;SDS011;10650;51.528;6.748;2023-06-22T11:02:17;23.63;;;21.33;;
20982;SDS011;10650;51.528;6.748;2023-06-22T11:04:45;23.00;;;20.60;;
20982;SDS011;10650;51.528;6.748;2023-06-22T11:07:15;24.83;;;22.60;;
20982;SDS011;10650;51.528;6.748;2023-06-22T11:09:43;22.90;;;20.60;;
20982;SDS011;10650;51.528;6.748;2023-06-22T11:12:11;22.45;;;20.20;;
20982;SDS011;10650;51.528;6.748;2023-06-22T11:14:39;22.50;;;19.75;;
20982;SDS011;10650;51.528;6.748;2023-06-22T11:17:07;21.00;;;19.00;;
20982;SDS011;10650;51.528;6.748;2023-06-22T11:19:34;20.40;;;18.50;;
20982;SDS011;10650;51.528;6.748;2023-06-22T11:22:03;21.15;;;19.05;;
20982;SDS011;10650;51.528;6.748;2023-06-22T11:24:32;20.08;;;18.20;;
20982;SDS011;10650;51.528;6.748;2023-06-22T11:27:00;16.98;;;15.32;;
20982;SDS011;10650;51.528;6.748;2023-06-22T11:29:28;18.77;;;17.05;;
20982;SDS011;10650;51.528;6.748;2023-06-22T11:32:04;18.75;;;16.95;;
20982;SDS011;10650;51.528;6.748;2023-06-22T11:34:33;19.73;;;17.67;;
20982;SDS011;10650;51.528;6.748;2023-06-22T11:37:01;20.27;;;18.50;;
20982;SDS011;10650;51.528;6.748;2023-06-22T11:39:29;21.77;;;19.80;;
20982;SDS011;10650;51.528;6.748;2023-06-22T11:42:09;21.17;;;19.08;;
20982;SDS011;10650;51.528;6.748;2023-06-22T11:44:37;23.20;;;21.10;;
20982;SDS011;10650;51.528;6.748;2023-06-22T11:47:05;25.17;;;22.77;;
20982;SDS011;10650;51.528;6.748;2023-06-22T11:49:33;24.95;;;22.73;;
20982;SDS011;10650;51.528;6.748;2023-06-22T11:52:01;21.50;;;19.33;;
20982;SDS011;10650;51.528;6.748;2023-06-22T11:54:29;23.40;;;21.27;;
20982;SDS011;10650;51.528;6.748;2023-06-22T11:56:57;22.67;;;20.60;;
20982;SDS011;10650;51.528;6.748;2023-06-22T11:59:26;29.48;;;26.63;;
20982;SDS011;10650;51.528;6.748;2023-06-22T12:01:53;35.20;;;31.55;;
20982;SDS011;10650;51.528;6.748;2023-06-22T12:04:21;32.42;;;29.23;;
20982;SDS011;10650;51.528;6.748;2023-06-22T12:06:49;36.17;;;32.67;;
20982;SDS011;10650;51.528;6.748;2023-06-22T12:09:17;34.65;;;31.17;;
20982;SDS011;10650;51.528;6.748;2023-06-22T12:11:44;29.88;;;26.73;;
20982;SDS011;10650;51.528;6.748;2023-06-22T12:14:12;27.67;;;25.08;;
20982;SDS011;10650;51.528;6.748;2023-06-22T12:16:41;24.92;;;22.52;;
20982;SDS011;10650;51.528;6.748;2023-06-22T12:19:10;25.67;;;23.23;;
20982;SDS011;10650;51.528;6.748;2023-06-22T12:21:38;25.13;;;22.77;;
20982;SDS011;10650;51.528;6.748;2023-06-22T12:24:07;27.52;;;24.85;;
20982;SDS011;10650;51.528;6.748;2023-06-22T12:26:34;29.92;;;26.88;;
20982;SDS011;10650;51.528;6.748;2023-06-22T12:29:02;27.23;;;24.58;;
20982;SDS011;10650;51.528;6.748;2023-06-22T12:31:30;29.80;;;26.88;;
20982;SDS011;10650;51.528;6.748;2023-06-22T12:33:59;29.02;;;26.38;;
20982;SDS011;10650;51.528;6.748;2023-06-22T12:36:27;33.97;;;30.73;;
20982;SDS011;10650;51.528;6.748;2023-06-22T12:38:55;30.35;;;27.45;;
20982;SDS011;10650;51.528;6.748;2023-06-22T12:41:22;30.13;;;27.15;;
20982;SDS011;10650;51.528;6.748;2023-06-22T12:43:50;31.30;;;28.13;;
20982;SDS011;10650;51.528;6.748;2023-06-22T12:46:18;31.15;;;28.00;;
20982;SDS011;10650;51.528;6.748;2023-06-22T12:48:46;32.70;;;29.52;;
20982;SDS011;10650;51.528;6.748;2023-06-22T12:51:21;28.50;;;25.90;;
20982;SDS011;10650;51.528;6.748;2023-06-22T12:53:49;30.58;;;27.48;;
20982;SDS011;10650;51.528;6.748;2023-06-22T12:56:17;28.80;;;26.10;;
20982;SDS011;10650;51.528;6.748;2023-06-22T12:58:45;30.40;;;27.60;;
20982;SDS011;10650;51.528;6.748;2023-06-22T13:01:12;31.00;;;28.00;;
20982;SDS011;10650;51.528;6.748;2023-06-22T13:03:41;31.42;;;28.63;;
20982;SDS011;10650;51.528;6.748;2023-06-22T13:06:09;33.83;;;30.63;;
20982;SDS011;10650;51.528;6.748;2023-06-22T13:08:38;32.20;;;29.15;;
20982;SDS011;10650;51.528;6.748;2023-06-22T13:13:38;33.33;;;30.02;;
20982;SDS011;10650;51.528;6.748;2023-06-22T13:16:06;36.00;;;32.50;;
20982;SDS011;10650;51.528;6.748;2023-06-22T13:18:34;33.75;;;30.65;;
20982;SDS011;10650;51.528;6.748;2023-06-22T13:21:02;33.45;;;29.98;;
20982;SDS011;10650;51.528;6.748;2023-06-22T13:23:30;33.72;;;30.45;;
20982;SDS011;10650;51.528;6.748;2023-06-22T13:25:59;33.17;;;30.13;;
20982;SDS011;10650;51.528;6.748;2023-06-22T13:28:27;34.53;;;31.42;;
20982;SDS011;10650;51.528;6.748;2023-06-22T13:30:56;33.85;;;30.60;;
20982;SDS011;10650;51.528;6.748;2023-06-22T13:33:24;34.78;;;31.23;;
20982;SDS011;10650;51.528;6.748;2023-06-22T13:35:52;36.10;;;32.78;;
20982;SDS011;10650;51.528;6.748;2023-06-22T13:38:19;38.75;;;34.95;;
20982;SDS011;10650;51.528;6.748;2023-06-22T13:40:48;36.97;;;33.40;;
20982;SDS011;10650;51.528;6.748;2023-06-22T13:43:18;37.72;;;33.95;;
20982;SDS011;10650;51.528;6.748;2023-06-22T13:45:46;32.28;;;29.25;;
20982;SDS011;10650;51.528;6.748;2023-06-22T13:48:13;32.55;;;29.52;;
20982;SDS011;10650;51.528;6.748;2023-06-22T13:50:42;36.97;;;33.17;;
20982;SDS011;10650;51.528;6.748;2023-06-22T13:53:10;34.47;;;31.20;;
20982;SDS011;10650;51.528;6.748;2023-06-22T13:55:39;35.92;;;32.63;;
20982;SDS011;10650;51.528;6.748;2023-06-22T13:58:06;37.38;;;33.83;;
20982;SDS011;10650;51.528;6.748;2023-06-22T14:00:36;38.72;;;35.00;;
20982;SDS011;10650;51.528;6.748;2023-06-22T14:03:04;35.55;;;32.25;;
20982;SDS011;10650;51.528;6.748;2023-06-22T14:05:32;36.42;;;33.03;;
20982;SDS011;10650;51.528;6.748;2023-06-22T14:08:00;32.00;;;29.10;;
20982;SDS011;10650;51.528;6.748;2023-06-22T14:10:30;38.05;;;34.25;;
20982;SDS011;10650;51.528;6.748;2023-06-22T14:12:58;35.63;;;32.15;;
20982;SDS011;10650;51.528;6.748;2023-06-22T14:15:26;37.53;;;33.88;;
20982;SDS011;10650;51.528;6.748;2023-06-22T14:17:55;37.03;;;33.55;;
20982;SDS011;10650;51.528;6.748;2023-06-22T14:20:23;35.58;;;31.95;;
20982;SDS011;10650;51.528;6.748;2023-06-22T14:22:51;35.22;;;31.73;;
20982;SDS011;10650;51.528;6.748;2023-06-22T14:25:18;37.50;;;33.90;;
20982;SDS011;10650;51.528;6.748;2023-06-22T14:27:46;37.10;;;33.63;;
20982;SDS011;10650;51.528;6.748;2023-06-22T14:30:14;34.22;;;31.02;;
20982;SDS011;10650;51.528;6.748;2023-06-22T14:32:43;36.75;;;33.00;;